createdAt,value
2023-04-02T00:00:20.739Z,100001.97
2023-04-02T00:03:00.002Z,100093.50
2023-04-02T00:05:55.201Z,100064.75
2023-04-02T00:08:41.284Z,100104.91
2023-04-02T00:11:12.175Z,100094.41
2023-04-02T00:13:46.878Z,100066.56
2023-04-02T00:16:23.610Z,100112.72
2023-04-02T00:18:59.132Z,100115.44
2023-04-02T00:21:31.653Z,100119.75
2023-04-02T00:24:04.180Z,100098.00
2023-04-02T00:26:37.811Z,100117.19
2023-04-02T00:29:11.351Z,100119.84
2023-04-02T00:31:44.351Z,100098.91
2023-04-02T00:34:22.861Z,100133.78
2023-04-02T00:36:53.571Z,100140.78
2023-04-02T00:39:27.221Z,100144.25
2023-04-02T00:42:05.127Z,100124.25
2023-04-02T00:44:43.254Z,100121.63
2023-04-02T00:47:21.526Z,100153.91
2023-04-02T00:49:58.023Z,100080.69
2023-04-02T00:52:31.781Z,100155.63
2023-04-02T00:55:07.874Z,100168.75
2023-04-02T00:57:37.269Z,100141.72
2023-04-02T01:00:25.522Z,100175.72
2023-04-02T01:03:34.610Z,100167.03
2023-04-02T01:06:11.277Z,100175.81
2023-04-02T01:09:03.766Z,100178.41
2023-04-02T01:12:01.090Z,100164.47
2023-04-02T01:14:49.030Z,100173.25
2023-04-02T01:17:36.191Z,100175.84
2023-04-02T01:20:51.287Z,100202.91
2023-04-02T01:23:27.881Z,100207.28
2023-04-02T01:26:10.661Z,100215.16
2023-04-02T01:29:01.944Z,100188.13
2023-04-02T01:31:33.372Z,100224.75
2023-04-02T01:34:04.623Z,100181.13
2023-04-02T01:36:44.877Z,100229.09
2023-04-02T01:39:33.352Z,100179.38
2023-04-02T01:42:14.329Z,100216.88
2023-04-02T01:44:50.001Z,100238.69
2023-04-02T01:47:23.154Z,100250.03
2023-04-02T01:49:59.174Z,100250.03
2023-04-02T01:52:40.733Z,100261.41
2023-04-02T01:55:13.142Z,100258.78
2023-04-02T01:57:45.844Z,100264.03
2023-04-02T02:00:19.121Z,100257.06
2023-04-02T02:02:53.262Z,100197.69
2023-04-02T02:05:24.754Z,100229.97
2023-04-02T02:07:58.096Z,100272.75
2023-04-02T02:10:34.327Z,100284.09
2023-04-02T02:13:03.363Z,100305.91
2023-04-02T02:15:37.341Z,100298.03
2023-04-02T02:18:11.751Z,100295.41
2023-04-02T02:20:41.244Z,100299.75
2023-04-02T02:23:13.756Z,100311.06
2023-04-02T02:25:43.125Z,100304.09
2023-04-02T02:28:19.869Z,100178.34
2023-04-02T02:30:54.146Z,100336.38
2023-04-02T02:33:28.294Z,100336.38
2023-04-02T02:36:06.763Z,100301.38
2023-04-02T02:38:56.288Z,100350.31
2023-04-02T02:41:41.412Z,100353.75
2023-04-02T02:44:19.837Z,100332.75
2023-04-02T02:46:56.051Z,100367.69
2023-04-02T02:49:31.513Z,100367.66
2023-04-02T02:52:14.014Z,100380.72
2023-04-02T02:55:02.279Z,100247.94
2023-04-02T02:57:49.477Z,100360.63
2023-04-02T03:00:21.037Z,100301.16
2023-04-02T03:02:54.337Z,100401.66
2023-04-02T03:05:28.031Z,100395.53
2023-04-02T03:08:03.329Z,100399.03
2023-04-02T03:10:44.539Z,100371.91
2023-04-02T03:13:24.727Z,100413.00
2023-04-02T03:16:05.157Z,100426.06
2023-04-02T03:18:46.815Z,100384.09
2023-04-02T03:21:29.769Z,100372.72
2023-04-02T03:24:04.687Z,100436.50
2023-04-02T03:26:41.854Z,100395.41
2023-04-02T03:29:18.732Z,100436.47
2023-04-02T03:31:55.180Z,100433.84
2023-04-02T03:34:33.982Z,100441.72
2023-04-02T03:37:14.204Z,100460.88
2023-04-02T03:39:47.930Z,100448.69
2023-04-02T03:42:25.153Z,100452.19
2023-04-02T03:45:04.116Z,100464.38
2023-04-02T03:47:41.089Z,100470.50
2023-04-02T03:50:20.036Z,100435.44
2023-04-02T03:52:50.093Z,100466.94
2023-04-02T03:55:25.217Z,100476.56
2023-04-02T03:58:06.304Z,100475.66
2023-04-02T04:00:42.228Z,100483.53
2023-04-02T04:03:17.230Z,100488.75
2023-04-02T04:05:54.972Z,100472.94
2023-04-02T04:08:33.882Z,100496.56
2023-04-02T04:11:11.122Z,100483.38
2023-04-02T04:13:51.475Z,100516.63
2023-04-02T04:16:27.756Z,100515.75
2023-04-02T04:19:05.121Z,100529.72
2023-04-02T04:21:38.359Z,100535.81
2023-04-02T04:24:21.893Z,100541.06
2023-04-02T04:27:04.052Z,100540.19
2023-04-02T04:29:46.556Z,100542.81
2023-04-02T04:32:32.113Z,100451.69
2023-04-02T04:35:17.779Z,100570.63
2023-04-02T04:37:58.739Z,100562.81
2023-04-02T04:40:34.247Z,100499.75
2023-04-02T04:43:09.116Z,100568.06
2023-04-02T04:45:46.038Z,100576.75
2023-04-02T04:48:27.509Z,100573.22
2023-04-02T04:51:03.747Z,100553.09
2023-04-02T04:53:34.459Z,100596.81
2023-04-02T04:56:18.825Z,100595.97
2023-04-02T04:59:00.179Z,100562.59
2023-04-02T05:01:38.753Z,100609.06
2023-04-02T05:04:18.840Z,100590.63
2023-04-02T05:06:56.433Z,100615.16
2023-04-02T05:09:35.133Z,100616.91
2023-04-02T05:12:18.629Z,100627.38
2023-04-02T05:14:55.400Z,100614.16
2023-04-02T05:17:33.820Z,100447.78
2023-04-02T05:20:09.782Z,100643.09
2023-04-02T05:22:48.233Z,100647.47
2023-04-02T05:25:27.104Z,100648.38
2023-04-02T05:28:06.352Z,100651.94
2023-04-02T05:30:49.445Z,100638.91
2023-04-02T05:33:28.230Z,100663.22
2023-04-02T05:36:03.012Z,100664.13
2023-04-02T05:38:38.865Z,100664.97
2023-04-02T05:41:23.475Z,100678.16
2023-04-02T05:44:06.640Z,100669.38
2023-04-02T05:46:46.723Z,100657.13
2023-04-02T05:49:26.125Z,100682.38
2023-04-02T05:52:00.854Z,100692.06
2023-04-02T05:54:38.698Z,100693.94
2023-04-02T05:57:16.579Z,100703.50
2023-04-02T05:59:50.769Z,100707.97
2023-04-02T06:02:26.787Z,100710.53
2023-04-02T06:05:03.093Z,100714.84
2023-04-02T06:07:42.960Z,100723.53
2023-04-02T06:10:20.604Z,100743.53
2023-04-02T06:12:58.156Z,100726.16
2023-04-02T06:15:27.973Z,100730.41
2023-04-02T06:18:16.221Z,100727.66
2023-04-02T06:20:45.716Z,100738.13
2023-04-02T06:23:21.904Z,100752.03
2023-04-02T06:26:01.582Z,100759.88
2023-04-02T06:28:42.440Z,100754.66
2023-04-02T06:31:27.008Z,100730.03
2023-04-02T06:33:57.470Z,100736.19
2023-04-02T06:36:29.455Z,100772.22
2023-04-02T06:39:10.023Z,100775.72
2023-04-02T06:41:39.469Z,100792.28
2023-04-02T06:44:33.432Z,100809.56
2023-04-02T06:47:31.748Z,100808.78
2023-04-02T06:50:09.377Z,100727.22
2023-04-02T06:52:45.670Z,100788.63
2023-04-02T06:55:45.994Z,100827.25
2023-04-02T06:58:17.344Z,100838.63
2023-04-02T07:00:49.521Z,100833.44
2023-04-02T07:03:29.002Z,100840.47
2023-04-02T07:06:04.017Z,100842.28
2023-04-02T07:08:34.665Z,100835.25
2023-04-02T07:11:03.186Z,100840.50
2023-04-02T07:13:31.804Z,100828.13
2023-04-02T07:16:01.956Z,100856.22
2023-04-02T07:18:33.856Z,100857.06
2023-04-02T07:21:06.544Z,100861.50
2023-04-02T07:23:35.355Z,100864.88
2023-04-02T07:26:03.938Z,100860.56
2023-04-02T07:28:32.459Z,100877.25
2023-04-02T07:31:02.342Z,100861.59
2023-04-02T07:33:32.368Z,100864.13
2023-04-02T07:36:00.847Z,100880.06
2023-04-02T07:38:29.304Z,100880.31
2023-04-02T07:40:57.791Z,100758.25
2023-04-02T07:43:26.376Z,100881.94
2023-04-02T07:45:54.842Z,100823.09
2023-04-02T07:48:24.676Z,100889.94
2023-04-02T07:50:53.167Z,100896.19
2023-04-02T07:53:30.810Z,100898.97
2023-04-02T07:56:01.163Z,100900.66
2023-04-02T07:58:30.877Z,100904.91
2023-04-02T08:00:59.922Z,100915.38
2023-04-02T08:03:30.161Z,100918.00
2023-04-02T08:06:00.325Z,100920.72
2023-04-02T08:08:28.875Z,100894.38
2023-04-02T08:10:57.333Z,100868.75
2023-04-02T08:13:25.925Z,100935.41
2023-04-02T08:15:54.396Z,100923.34
2023-04-02T08:18:24.597Z,100914.63
2023-04-02T08:20:54.609Z,100926.19
2023-04-02T08:23:23.859Z,100936.88
2023-04-02T08:25:53.658Z,100957.97
2023-04-02T08:28:22.970Z,100949.13
2023-04-02T08:30:52.640Z,100923.91
2023-04-02T08:33:21.255Z,100957.13
2023-04-02T08:35:51.898Z,100966.63
2023-04-02T08:38:23.708Z,100935.75
2023-04-02T08:40:55.617Z,100971.56
2023-04-02T08:44:09.604Z,100977.94
2023-04-02T08:46:49.247Z,100973.50
2023-04-02T08:49:27.025Z,100983.91
2023-04-02T08:51:55.643Z,100992.59
2023-04-02T08:54:30.530Z,100994.53
2023-04-02T08:57:05.665Z,100990.94
2023-04-02T08:59:37.856Z,100991.16
2023-04-02T09:02:30.829Z,101005.22
2023-04-02T09:05:06.030Z,100986.69
2023-04-02T09:07:35.281Z,101014.22
2023-04-02T09:10:07.318Z,101015.06
2023-04-02T09:12:37.113Z,101018.66
2023-04-02T09:15:24.755Z,101015.88
2023-04-02T09:18:05.261Z,100986.19
2023-04-02T09:20:33.813Z,101031.22
2023-04-02T09:23:02.265Z,101035.34
2023-04-02T09:25:33.535Z,101038.59
2023-04-02T09:28:06.472Z,101032.75
2023-04-02T09:30:57.142Z,101046.28
2023-04-02T09:33:45.678Z,101038.38
2023-04-02T09:36:37.403Z,101068.59
2023-04-02T09:39:18.032Z,101056.59
2023-04-02T09:41:59.037Z,101054.72
2023-04-02T09:44:33.688Z,101081.25
2023-04-02T09:47:05.276Z,101085.44
2023-04-02T09:49:37.255Z,101089.34
2023-04-02T09:52:29.328Z,101084.97
2023-04-02T09:55:22.986Z,101029.97
2023-04-02T09:58:08.891Z,101089.69
2023-04-02T10:00:38.201Z,101098.69
2023-04-02T10:03:19.184Z,101088.88
2023-04-02T10:05:48.892Z,101100.97
2023-04-02T10:08:28.151Z,101069.41
2023-04-02T10:11:01.989Z,101084.13
2023-04-02T10:13:41.951Z,101110.66
2023-04-02T10:16:18.825Z,101065.03
2023-04-02T10:18:51.905Z,101117.88
2023-04-02T10:21:27.113Z,101124.66
2023-04-02T10:23:58.290Z,101098.88
2023-04-02T10:26:54.218Z,101134.75
2023-04-02T10:30:04.031Z,101120.03
2023-04-02T10:32:42.566Z,101142.91
2023-04-02T10:35:25.702Z,101151.28
2023-04-02T10:38:27.444Z,101146.19
2023-04-02T10:41:02.108Z,101149.44
2023-04-02T10:44:06.187Z,101158.22
2023-04-02T10:47:00.840Z,101161.97
2023-04-02T10:49:42.019Z,101150.25
2023-04-02T10:52:19.558Z,101146.41
2023-04-02T10:54:52.589Z,101158.94
2023-04-02T10:57:38.058Z,101159.81
2023-04-02T11:00:23.630Z,101167.72
2023-04-02T11:03:01.146Z,101157.56
2023-04-02T11:05:40.281Z,101183.97
2023-04-02T11:08:20.728Z,101199.94
2023-04-02T11:10:55.985Z,101190.22
2023-04-02T11:13:32.389Z,101196.38
2023-04-02T11:16:01.211Z,101205.28
2023-04-02T11:18:36.057Z,101206.13
2023-04-02T11:21:08.057Z,101175.44
2023-04-02T11:23:54.868Z,101182.38
2023-04-02T11:26:46.289Z,101212.63
2023-04-02T11:29:23.820Z,101226.09
2023-04-02T11:32:15.708Z,101233.94
2023-04-02T11:35:07.520Z,101232.09
2023-04-02T11:37:41.122Z,101234.88
2023-04-02T11:40:46.674Z,101207.56
2023-04-02T11:44:00.789Z,101238.53
2023-04-02T11:46:47.918Z,101242.88
2023-04-02T11:50:02.492Z,101240.16
2023-04-02T11:52:37.926Z,101248.44
2023-04-02T11:55:27.449Z,101214.09
2023-04-02T11:58:38.083Z,101261.09
2023-04-02T12:01:54.610Z,101264.34
2023-04-02T12:04:59.373Z,101272.19
2023-04-02T12:08:05.962Z,101274.22
2023-04-02T12:10:53.606Z,101280.09
2023-04-02T12:13:52.594Z,101278.56
2023-04-02T12:16:25.480Z,101268.59
2023-04-02T12:18:55.560Z,101290.44
2023-04-02T12:21:28.262Z,101208.44
2023-04-02T12:24:00.851Z,101278.94
2023-04-02T12:26:38.998Z,101280.59
2023-04-02T12:29:24.297Z,101305.25
2023-04-02T12:31:54.695Z,101301.84
2023-04-02T12:34:26.794Z,101307.97
2023-04-02T12:37:02.651Z,101306.09
2023-04-02T12:39:35.805Z,101309.72
2023-04-02T12:42:04.353Z,101299.34
2023-04-02T12:44:33.487Z,101299.84
2023-04-02T12:47:02.309Z,101283.34
2023-04-02T12:49:40.037Z,101285.00
2023-04-02T12:52:11.827Z,101308.91
2023-04-02T12:54:48.729Z,101315.13
2023-04-02T12:57:40.260Z,101326.50
2023-04-02T13:00:37.260Z,101322.91
2023-04-02T13:03:29.133Z,101322.44
2023-04-02T13:05:58.716Z,101320.78
2023-04-02T13:08:33.324Z,101322.88
2023-04-02T13:11:06.711Z,101332.63
2023-04-02T13:13:39.233Z,101338.75
2023-04-02T13:16:27.663Z,101340.13
2023-04-02T13:19:23.435Z,101307.69
2023-04-02T13:21:52.797Z,101315.91
2023-04-02T13:24:23.748Z,101303.63
2023-04-02T13:26:58.609Z,101327.34
2023-04-02T13:29:41.950Z,101349.38
2023-04-02T13:32:14.243Z,101359.94
2023-04-02T13:34:42.861Z,101358.19
2023-04-02T13:37:13.879Z,101364.31
2023-04-02T13:39:42.772Z,101366.03
2023-04-02T13:42:14.296Z,101351.97
2023-04-02T13:44:43.717Z,101353.56
2023-04-02T13:47:16.482Z,101368.59
2023-04-02T13:49:44.942Z,101365.09
2023-04-02T13:52:17.029Z,101366.84
2023-04-02T13:54:50.829Z,101368.66
2023-04-02T13:57:21.407Z,101363.44
2023-04-02T13:59:49.867Z,101369.69
2023-04-02T14:02:25.553Z,101370.56
2023-04-02T14:05:04.936Z,101379.38
2023-04-02T14:07:55.848Z,101379.31
2023-04-02T14:10:39.685Z,101385.50
2023-04-02T14:13:37.928Z,101379.41
2023-04-02T14:16:28.001Z,101386.34
2023-04-02T14:19:17.648Z,101346.53
2023-04-02T14:22:02.602Z,101376.66
2023-04-02T14:24:46.275Z,101378.41
2023-04-02T14:27:32.838Z,101380.94
2023-04-02T14:30:16.618Z,101381.03
2023-04-02T14:32:58.381Z,101392.53
2023-04-02T14:35:36.514Z,101393.41
2023-04-02T14:38:17.876Z,101397.00
2023-04-02T14:40:51.614Z,101232.47
2023-04-02T14:43:32.644Z,101384.56
2023-04-02T14:46:05.039Z,101402.13
2023-04-02T14:48:47.870Z,101402.19
2023-04-02T14:51:26.424Z,101350.94
2023-04-02T14:54:05.687Z,101398.59
2023-04-02T14:56:43.139Z,101400.28
2023-04-02T14:59:29.878Z,101402.94
2023-04-02T15:02:08.649Z,101357.19
2023-04-02T15:04:43.107Z,101405.63
2023-04-02T15:07:20.609Z,101409.13
2023-04-02T15:10:00.333Z,101371.25
2023-04-02T15:12:34.591Z,101375.63
2023-04-02T15:15:24.322Z,101414.31
2023-04-02T15:18:03.024Z,101420.44
2023-04-02T15:20:41.283Z,101420.22
2023-04-02T15:23:20.420Z,101420.31
2023-04-02T15:25:56.541Z,101399.16
2023-04-02T15:28:33.416Z,101411.56
2023-04-02T15:31:12.944Z,101421.31
2023-04-02T15:33:52.852Z,101387.94
2023-04-02T15:36:54.908Z,101418.91
2023-04-02T15:39:40.214Z,101416.22
2023-04-02T15:42:32.209Z,101423.19
2023-04-02T15:45:34.823Z,101420.69
2023-04-02T15:48:31.562Z,101384.50
2023-04-02T15:51:21.079Z,101403.06
2023-04-02T15:54:05.898Z,101425.88
2023-04-02T15:56:50.577Z,101403.78
2023-04-02T16:00:05.211Z,101433.66
2023-04-02T16:03:54.768Z,101438.03
2023-04-02T16:06:32.524Z,101443.31
2023-04-02T16:09:23.935Z,101444.06
2023-04-02T16:12:01.000Z,101448.38
2023-04-02T16:14:32.534Z,101412.34
2023-04-02T16:17:17.562Z,101400.06
2023-04-02T16:19:58.040Z,101420.34
2023-04-02T16:22:33.242Z,101439.66
2023-04-02T16:25:08.284Z,101444.94
2023-04-02T16:27:45.271Z,101462.63
2023-04-02T16:30:47.053Z,101459.78
2023-04-02T16:33:51.997Z,101471.13
2023-04-02T16:36:36.581Z,101470.28
2023-04-02T16:39:29.125Z,101478.16
2023-04-02T16:42:14.171Z,101478.09
2023-04-02T16:45:00.599Z,101480.91
2023-04-02T16:47:55.390Z,101484.41
2023-04-02T16:50:40.276Z,101460.44
2023-04-02T16:53:29.913Z,101494.72
2023-04-02T16:56:29.008Z,101498.06
2023-04-02T16:59:15.985Z,101458.34
2023-04-02T17:01:59.257Z,101467.16
2023-04-02T17:04:54.642Z,101500.69
2023-04-02T17:07:41.693Z,101483.91
2023-04-02T17:10:30.132Z,101467.16
2023-04-02T17:13:14.099Z,101504.13
2023-04-02T17:15:48.286Z,101479.25
2023-04-02T17:18:20.486Z,101508.50
2023-04-02T17:20:49.625Z,101512.81
2023-04-02T17:23:20.705Z,101519.75
2023-04-02T17:25:57.073Z,101519.69
2023-04-02T17:28:37.033Z,101489.69
2023-04-02T17:31:14.783Z,101532.81
2023-04-02T17:33:43.292Z,101515.97
2023-04-02T17:36:41.239Z,101531.75
2023-04-02T17:39:21.907Z,101546.66
2023-04-02T17:42:00.022Z,101551.09
2023-04-02T17:45:02.272Z,101552.66
2023-04-02T17:47:47.597Z,101557.13
2023-04-02T17:50:46.197Z,101542.13
2023-04-02T17:53:39.078Z,101513.19
2023-04-02T17:56:26.710Z,101522.59
2023-04-02T17:59:30.365Z,101566.03
2023-04-02T18:02:20.611Z,101573.81
2023-04-02T18:05:04.616Z,101567.66
2023-04-02T18:07:47.040Z,101521.59
2023-04-02T18:10:24.510Z,101579.78
2023-04-02T18:12:59.147Z,101551.47
2023-04-02T18:15:48.619Z,101582.25
2023-04-02T18:18:39.420Z,101592.03
2023-04-02T18:21:24.091Z,101593.84
2023-04-02T18:24:13.764Z,101598.09
2023-04-02T18:26:59.474Z,101608.63
2023-04-02T18:29:42.801Z,101564.44
2023-04-02T18:32:39.462Z,101619.78
2023-04-02T18:35:23.345Z,101611.88
2023-04-02T18:38:16.664Z,101618.94
2023-04-02T18:41:03.779Z,101624.19
2023-04-02T18:43:52.440Z,101622.50
2023-04-02T18:46:37.179Z,101622.41
2023-04-02T18:49:24.787Z,101517.28
2023-04-02T18:52:01.391Z,101633.69
2023-04-02T18:54:36.851Z,101630.31
2023-04-02T18:57:14.532Z,101631.00
2023-04-02T18:59:50.444Z,101633.56
2023-04-02T19:02:40.217Z,101586.66
2023-04-02T19:05:23.850Z,101625.38
2023-04-02T19:08:03.595Z,101641.91
2023-04-02T19:10:36.296Z,101532.38
2023-04-02T19:13:15.483Z,101656.22
2023-04-02T19:16:20.254Z,101640.16
2023-04-02T19:19:02.920Z,101591.28
2023-04-02T19:21:47.749Z,101649.81
2023-04-02T19:24:42.613Z,101602.94
2023-04-02T19:27:21.610Z,101676.22
2023-04-02T19:30:08.178Z,101684.16
2023-04-02T19:32:50.686Z,101684.56
2023-04-02T19:35:28.110Z,101559.31
2023-04-02T19:38:20.405Z,101628.13
2023-04-02T19:41:00.897Z,101579.28
2023-04-02T19:43:30.319Z,101698.38
2023-04-02T19:45:59.202Z,101655.88
2023-04-02T19:48:35.540Z,101673.50
2023-04-02T19:51:04.270Z,101700.91
2023-04-02T19:53:33.283Z,101684.81
2023-04-02T19:56:03.458Z,101713.00
2023-04-02T19:58:35.743Z,101707.06
2023-04-02T20:01:05.058Z,101732.97
2023-04-02T20:03:33.705Z,101697.66
2023-04-02T20:06:02.470Z,101737.16
2023-04-02T20:08:31.559Z,101726.63
2023-04-02T20:11:02.024Z,101733.50
2023-04-02T20:13:30.900Z,101731.56
2023-04-02T20:16:01.855Z,101705.00
2023-04-02T20:18:31.420Z,101732.16
2023-04-02T20:21:00.375Z,101739.94
2023-04-02T20:23:28.880Z,101714.94
2023-04-02T20:25:58.516Z,101688.28
2023-04-02T20:28:29.368Z,101758.09
2023-04-02T20:31:09.468Z,101753.56
2023-04-02T20:33:39.179Z,101723.19
2023-04-02T20:36:11.519Z,101765.50
2023-04-02T20:38:40.397Z,101716.66
2023-04-02T20:41:10.910Z,101772.94
2023-04-02T20:43:42.716Z,101776.25
2023-04-02T20:46:13.648Z,101781.38
2023-04-02T20:48:42.440Z,101762.38
2023-04-02T20:51:15.464Z,101718.97
2023-04-02T20:53:44.354Z,101769.06
2023-04-02T20:56:16.080Z,101794.69
2023-04-02T20:58:46.296Z,101810.16
2023-04-02T21:01:19.731Z,101773.81
2023-04-02T21:03:48.584Z,101809.13
2023-04-02T21:06:19.543Z,101817.78
2023-04-02T21:08:49.080Z,101813.38
2023-04-02T21:11:18.418Z,101785.72
2023-04-02T21:13:48.313Z,101780.97
2023-04-02T21:16:19.679Z,101831.31
2023-04-02T21:18:50.546Z,101771.75
2023-04-02T21:21:21.183Z,101841.75
2023-04-02T21:23:55.345Z,101841.50
2023-04-02T21:26:24.201Z,101836.22
2023-04-02T21:28:54.998Z,101840.56
2023-04-02T21:31:26.098Z,101834.34
2023-04-02T21:33:57.377Z,101847.31
2023-04-02T21:36:28.670Z,101842.75
2023-04-02T21:39:00.429Z,101818.41
2023-04-02T21:41:32.657Z,101808.72
2023-04-02T21:44:05.923Z,101821.69
2023-04-02T21:46:38.593Z,101841.38
2023-04-02T21:49:08.953Z,101852.41
2023-04-02T21:51:39.556Z,101855.63
2023-04-02T21:54:08.433Z,101848.72
2023-04-02T21:56:39.529Z,101821.56
2023-04-02T21:59:12.573Z,101870.91
2023-04-02T22:01:43.970Z,101861.16
2023-04-02T22:04:18.862Z,101866.16
2023-04-02T22:06:48.623Z,101861.56
2023-04-02T22:09:20.324Z,101874.66
2023-04-02T22:11:52.772Z,101869.44
2023-04-02T22:14:23.184Z,101841.59
2023-04-02T22:16:52.134Z,101868.16
2023-04-02T22:19:21.575Z,101895.06
2023-04-02T22:21:50.048Z,101886.00
2023-04-02T22:24:22.090Z,101895.84
2023-04-02T22:26:51.058Z,101898.34
2023-04-02T22:29:19.614Z,101899.16
2023-04-02T22:31:49.427Z,101873.19
2023-04-02T22:34:17.944Z,101905.84
2023-04-02T22:36:46.401Z,101910.13
2023-04-02T22:39:15.063Z,101908.03
2023-04-02T22:41:43.472Z,101914.25
2023-04-02T22:44:16.414Z,101914.97
2023-04-02T22:46:45.080Z,101917.59
2023-04-02T22:49:19.337Z,101926.94
2023-04-02T22:51:48.446Z,101936.34
2023-04-02T22:54:17.133Z,101918.91
2023-04-02T22:56:45.580Z,101936.19
2023-04-02T22:59:14.213Z,101927.31
2023-04-02T23:01:42.832Z,101941.03
2023-04-02T23:04:11.261Z,101947.78
2023-04-02T23:06:41.219Z,101942.41
2023-04-02T23:09:11.117Z,101920.88
2023-04-02T23:11:39.567Z,101950.84
2023-04-02T23:14:08.034Z,101931.25
2023-04-02T23:16:36.474Z,101951.63
2023-04-02T23:19:05.078Z,101951.63
2023-04-02T23:21:33.526Z,101950.69
2023-04-02T23:24:03.633Z,101959.47
2023-04-02T23:26:32.995Z,101956.03
2023-04-02T23:29:02.411Z,101957.75
2023-04-02T23:31:31.459Z,101963.03
2023-04-02T23:34:00.153Z,101957.75
2023-04-02T23:36:30.931Z,101913.06
2023-04-02T23:39:04.114Z,101963.44
2023-04-02T23:41:33.248Z,101965.94
2023-04-02T23:44:01.727Z,101971.88
2023-04-02T23:46:31.974Z,101974.19
2023-04-02T23:49:01.899Z,101974.19
2023-04-02T23:51:32.420Z,101980.25
2023-04-02T23:54:02.251Z,101981.75
2023-04-02T23:56:30.702Z,101985.19
2023-04-02T23:58:59.082Z,101984.28
